Time;durP1;ratioP1;P1;durP2;ratioP2;P2;SDS_P1;SDS_P2;PMS_P1;PMS_P2;Temp;Humidity;BMP_temperature;BMP_pressure;BME280_temperature;BME280_humidity;BME280_pressure;Samples;Min_cycle;Max_cycle;Signal;HPM_P1;HPM_P2
2021/12/21 00:02:05;;;;;;;20.43;12.57;;;;;;;;;;5014859;28;20029;-69
2021/12/21 00:04:30;;;;;;;19.93;13.53;;;;;;;;;;5014105;28;20402;-69
2021/12/21 00:06:55;;;;;;;22.47;13.53;;;;;;;;;;5031984;28;20021;-69
2021/12/21 00:09:21;;;;;;;19.77;12.97;;;;;;;;;;5012886;28;20025;-69
2021/12/21 00:11:48;;;;;;;21.53;13.80;;;;;;;;;;5037273;28;20014;-69
2021/12/21 00:14:29;;;;;;;20.90;13.50;;;;;;;;;;5024164;28;20083;-68
2021/12/21 00:17:09;;;;;;;21.47;13.83;;;;;;;;;;5036199;28;20108;-69
2021/12/21 00:19:48;;;;;;;20.80;13.67;;;;;;;;;;5011766;28;20022;-68
2021/12/21 00:24:48;;;;;;;24.60;14.23;;;;;;;;;;5013040;28;20470;-68
2021/12/21 00:27:15;;;;;;;21.33;13.90;;;;;;;;;;5019876;28;20273;-67
2021/12/21 00:29:40;;;;;;;29.13;14.87;;;;;;;;;;5031167;28;20017;-69
2021/12/21 00:32:06;;;;;;;22.60;14.30;;;;;;;;;;5017882;28;20040;-68
2021/12/21 00:34:32;;;;;;;28.00;15.63;;;;;;;;;;5031564;28;20037;-68
2021/12/21 00:36:57;;;;;;;26.77;14.13;;;;;;;;;;5014290;28;20033;-68
2021/12/21 00:39:22;;;;;;;22.03;13.67;;;;;;;;;;5028387;28;20042;-68
2021/12/21 00:41:47;;;;;;;26.03;15.27;;;;;;;;;;5023383;28;20033;-68
2021/12/21 00:44:12;;;;;;;20.63;14.60;;;;;;;;;;5013728;28;20038;-68
2021/12/21 00:46:39;;;;;;;23.00;14.80;;;;;;;;;;5013688;28;20041;-68
2021/12/21 00:49:14;;;;;;;27.90;15.17;;;;;;;;;;5024415;28;20071;-68
2021/12/21 00:51:40;;;;;;;24.47;14.73;;;;;;;;;;5031431;28;20029;-68
2021/12/21 00:54:06;;;;;;;24.03;14.90;;;;;;;;;;5031775;28;20371;-69
2021/12/21 00:56:31;;;;;;;25.60;14.57;;;;;;;;;;5031548;28;20028;-69
2021/12/21 00:58:56;;;;;;;21.97;14.07;;;;;;;;;;5031851;28;20401;-69
2021/12/21 01:01:21;;;;;;;24.10;15.70;;;;;;;;;;5032030;28;20029;-69
2021/12/21 01:03:50;;;;;;;25.23;15.90;;;;;;;;;;5030170;28;20103;-69
2021/12/21 01:06:25;;;;;;;24.07;15.87;;;;;;;;;;5031089;28;20022;-69
2021/12/21 01:11:25;;;;;;;27.87;14.97;;;;;;;;;;4996971;28;20040;-69
2021/12/21 01:16:51;;;;;;;20.83;14.17;;;;;;;;;;5015674;28;20148;-69
2021/12/21 01:19:22;;;;;;;26.00;15.02;;;;;;;;;;5014309;28;20052;-69
2021/12/21 01:21:58;;;;;;;25.60;15.10;;;;;;;;;;5019654;28;20116;-69
2021/12/21 01:29:27;;;;;;;20.97;14.20;;;;;;;;;;5014604;28;20114;-69
2021/12/21 01:32:08;;;;;;;23.50;14.63;;;;;;;;;;5034012;28;20421;-69
2021/12/21 01:37:25;;;;;;;24.17;14.13;;;;;;;;;;5023344;28;20123;-69
2021/12/21 01:40:13;;;;;;;19.57;12.90;;;;;;;;;;5012111;28;20041;-69
2021/12/21 01:50:45;;;;;;;19.53;12.03;;;;;;;;;;5024267;28;20031;-69
2021/12/21 01:53:10;;;;;;;17.63;11.30;;;;;;;;;;5046971;28;20112;-69
2021/12/21 01:55:35;;;;;;;18.77;11.17;;;;;;;;;;5049093;28;20025;-69
2021/12/21 01:58:01;;;;;;;16.53;10.57;;;;;;;;;;4997323;28;20057;-69
2021/12/21 02:00:27;;;;;;;17.53;9.63;;;;;;;;;;5015684;28;20022;-69
2021/12/21 02:02:53;;;;;;;17.47;10.73;;;;;;;;;;5015519;28;20029;-69
2021/12/21 02:05:18;;;;;;;16.30;10.00;;;;;;;;;;5027107;28;20191;-69
2021/12/21 02:07:43;;;;;;;18.00;10.20;;;;;;;;;;5033907;28;20074;-68
2021/12/21 02:10:08;;;;;;;19.57;9.47;;;;;;;;;;5011316;28;20120;-68
2021/12/21 02:12:34;;;;;;;17.03;9.60;;;;;;;;;;5035063;28;20018;-68
2021/12/21 02:15:00;;;;;;;17.17;8.87;;;;;;;;;;5015250;28;20025;-68
2021/12/21 02:20:21;;;;;;;17.70;10.90;;;;;;;;;;5035056;28;20022;-68
2021/12/21 02:22:56;;;;;;;17.37;10.30;;;;;;;;;;5034862;28;20113;-68
2021/12/21 02:28:12;;;;;;;18.10;10.67;;;;;;;;;;5043823;28;20032;-68
2021/12/21 02:30:40;;;;;;;16.97;11.60;;;;;;;;;;5034217;28;20576;-68
2021/12/21 02:33:06;;;;;;;19.47;11.37;;;;;;;;;;5013822;28;20033;-68
2021/12/21 02:35:31;;;;;;;17.63;10.70;;;;;;;;;;5015717;28;20029;-68
2021/12/21 02:37:56;;;;;;;16.13;9.97;;;;;;;;;;5033108;28;20029;-68
2021/12/21 02:40:21;;;;;;;14.87;10.40;;;;;;;;;;5002008;28;20046;-68
2021/12/21 02:42:46;;;;;;;17.57;11.07;;;;;;;;;;5012430;28;20030;-68
2021/12/21 02:45:12;;;;;;;17.97;11.03;;;;;;;;;;5014391;28;20033;-68
2021/12/21 02:47:37;;;;;;;18.03;10.60;;;;;;;;;;5014361;28;20057;-69
2021/12/21 02:50:02;;;;;;;17.87;11.13;;;;;;;;;;4996778;28;20096;-69
2021/12/21 02:52:28;;;;;;;19.60;11.67;;;;;;;;;;5014402;28;20441;-69
2021/12/21 02:54:53;;;;;;;16.43;11.00;;;;;;;;;;5021406;28;20040;-69
2021/12/21 02:57:18;;;;;;;16.03;9.90;;;;;;;;;;5012942;28;20141;-69
2021/12/21 02:59:43;;;;;;;18.13;11.17;;;;;;;;;;4996485;28;20129;-69
2021/12/21 03:02:09;;;;;;;17.37;10.80;;;;;;;;;;4996818;28;20057;-69
2021/12/21 03:04:34;;;;;;;20.43;12.33;;;;;;;;;;5012349;28;20034;-69
2021/12/21 03:09:53;;;;;;;18.37;12.43;;;;;;;;;;5008229;28;20084;-69
2021/12/21 03:13:51;;;;;;;20.07;11.80;;;;;;;;;;5020275;28;20029;-69
2021/12/21 03:15:04;;;;;;;18.45;11.18;;;;;;;;;;5018070;28;20552;-69
2021/12/21 03:17:29;;;;;;;16.40;11.50;;;;;;;;;;5019251;28;20057;-69
2021/12/21 03:19:54;;;;;;;20.53;11.57;;;;;;;;;;5023205;28;20052;-69
2021/12/21 03:22:19;;;;;;;22.03;12.23;;;;;;;;;;5015922;28;20201;-69
2021/12/21 03:24:45;;;;;;;18.90;12.50;;;;;;;;;;5011072;28;20033;-69
2021/12/21 03:27:11;;;;;;;19.20;11.67;;;;;;;;;;5010081;28;20037;-69
2021/12/21 03:29:37;;;;;;;19.77;11.80;;;;;;;;;;5014029;28;20029;-69
2021/12/21 03:32:02;;;;;;;19.07;11.83;;;;;;;;;;5013506;28;20101;-69
2021/12/21 03:34:28;;;;;;;20.87;12.47;;;;;;;;;;5013324;28;20121;-69
2021/12/21 03:36:53;;;;;;;21.70;11.43;;;;;;;;;;5011612;28;20108;-69
2021/12/21 03:39:19;;;;;;;21.50;12.30;;;;;;;;;;5016869;28;20059;-69
2021/12/21 03:41:49;;;;;;;18.07;12.03;;;;;;;;;;5032946;28;20433;-69
2021/12/21 03:44:15;;;;;;;21.20;10.83;;;;;;;;;;5032050;28;20474;-69
2021/12/21 03:46:46;;;;;;;19.37;10.73;;;;;;;;;;5046697;28;20032;-69
2021/12/21 03:51:56;;;;;;;19.00;10.77;;;;;;;;;;5018109;28;20129;-69
2021/12/21 03:54:22;;;;;;;17.73;11.67;;;;;;;;;;5032214;28;20474;-69
2021/12/21 03:56:49;;;;;;;19.17;11.20;;;;;;;;;;5030758;28;20088;-69
2021/12/21 03:59:15;;;;;;;19.03;10.97;;;;;;;;;;5015296;28;20405;-69
2021/12/21 04:01:40;;;;;;;19.43;10.87;;;;;;;;;;5036931;28;20489;-69
2021/12/21 04:04:05;;;;;;;17.93;10.60;;;;;;;;;;5032079;28;20036;-69
2021/12/21 04:06:31;;;;;;;17.63;10.53;;;;;;;;;;5019111;28;20026;-69
2021/12/21 04:08:56;;;;;;;17.53;11.27;;;;;;;;;;4998046;28;20018;-68
2021/12/21 04:11:21;;;;;;;15.00;11.07;;;;;;;;;;5032246;28;20104;-69
2021/12/21 04:13:46;;;;;;;18.07;10.17;;;;;;;;;;5030582;28;20033;-68
2021/12/21 04:16:12;;;;;;;16.83;11.00;;;;;;;;;;5032253;28;20394;-69
2021/12/21 04:18:39;;;;;;;21.77;12.43;;;;;;;;;;5031589;28;20028;-69
2021/12/21 04:21:05;;;;;;;16.10;11.00;;;;;;;;;;5049747;28;20159;-69
2021/12/21 04:23:30;;;;;;;18.97;11.20;;;;;;;;;;5037486;28;20529;-70
2021/12/21 04:25:55;;;;;;;17.83;11.43;;;;;;;;;;5031797;28;20096;-69
2021/12/21 04:28:20;;;;;;;20.50;12.40;;;;;;;;;;5012759;28;20026;-67
2021/12/21 04:30:46;;;;;;;20.60;10.57;;;;;;;;;;5014927;28;20013;-68
2021/12/21 04:33:11;;;;;;;17.10;10.13;;;;;;;;;;5032409;28;20017;-68
2021/12/21 04:35:36;;;;;;;17.27;10.63;;;;;;;;;;5013697;28;20025;-68
2021/12/21 04:38:19;;;;;;;19.77;10.77;;;;;;;;;;5008984;28;20457;-68
2021/12/21 04:40:47;;;;;;;19.83;10.70;;;;;;;;;;5029222;28;20135;-68
2021/12/21 04:43:13;;;;;;;24.20;12.80;;;;;;;;;;5032022;28;20115;-68
2021/12/21 04:45:38;;;;;;;21.97;12.50;;;;;;;;;;5031847;28;20478;-68
2021/12/21 04:48:03;;;;;;;24.77;14.23;;;;;;;;;;4994409;28;20030;-68
2021/12/21 04:50:29;;;;;;;22.50;14.07;;;;;;;;;;5012684;28;20018;-69
2021/12/21 04:52:54;;;;;;;20.63;12.67;;;;;;;;;;5010895;28;20018;-69
2021/12/21 04:55:19;;;;;;;22.20;13.10;;;;;;;;;;5017296;28;20520;-69
2021/12/21 04:57:44;;;;;;;19.27;12.93;;;;;;;;;;5014947;28;20493;-69
2021/12/21 05:00:12;;;;;;;19.40;12.63;;;;;;;;;;4994822;28;20022;-69
2021/12/21 05:02:37;;;;;;;20.50;14.33;;;;;;;;;;5012419;28;20028;-69
2021/12/21 05:05:03;;;;;;;24.17;13.93;;;;;;;;;;5015696;28;20021;-69
2021/12/21 05:07:31;;;;;;;19.27;13.10;;;;;;;;;;4997372;28;20049;-69
2021/12/21 05:09:58;;;;;;;21.93;13.90;;;;;;;;;;5026467;28;20017;-67
2021/12/21 05:12:23;;;;;;;21.33;14.00;;;;;;;;;;5031744;28;20025;-69
2021/12/21 05:14:49;;;;;;;21.73;12.77;;;;;;;;;;5031508;28;20104;-69
2021/12/21 05:17:14;;;;;;;23.17;12.90;;;;;;;;;;5029558;28;20025;-69
2021/12/21 05:19:39;;;;;;;25.33;14.20;;;;;;;;;;5031253;28;20026;-69
2021/12/21 05:22:05;;;;;;;21.20;12.97;;;;;;;;;;5013498;28;20029;-68
2021/12/21 05:24:30;;;;;;;20.93;14.13;;;;;;;;;;5031687;28;20113;-70
2021/12/21 05:26:55;;;;;;;19.23;12.83;;;;;;;;;;5035265;28;20024;-69
2021/12/21 05:29:20;;;;;;;22.77;14.80;;;;;;;;;;5046407;28;20029;-69
2021/12/21 05:31:46;;;;;;;20.50;13.13;;;;;;;;;;5013925;28;20029;-69
2021/12/21 05:34:11;;;;;;;24.23;13.07;;;;;;;;;;5030802;28;20036;-69
2021/12/21 05:36:36;;;;;;;17.10;12.03;;;;;;;;;;5030812;28;20485;-69
2021/12/21 05:39:04;;;;;;;19.63;12.90;;;;;;;;;;5024965;28;20041;-69
2021/12/21 05:41:46;;;;;;;21.97;14.40;;;;;;;;;;5030512;28;20033;-69
2021/12/21 05:44:12;;;;;;;19.63;13.67;;;;;;;;;;5015713;28;20044;-69
2021/12/21 05:46:37;;;;;;;22.03;13.43;;;;;;;;;;5016201;28;20023;-69
2021/12/21 05:49:03;;;;;;;19.67;12.83;;;;;;;;;;5033912;28;20029;-69
2021/12/21 05:51:28;;;;;;;23.10;14.23;;;;;;;;;;5008148;28;20080;-69
2021/12/21 05:53:53;;;;;;;25.47;14.03;;;;;;;;;;5012143;28;20030;-69
2021/12/21 05:56:19;;;;;;;23.70;14.67;;;;;;;;;;5023136;28;20064;-69
2021/12/21 05:58:44;;;;;;;22.03;14.17;;;;;;;;;;5038280;28;20021;-69
2021/12/21 06:01:09;;;;;;;22.33;13.30;;;;;;;;;;5031251;28;20068;-69
2021/12/21 06:03:34;;;;;;;24.57;14.70;;;;;;;;;;5016082;28;20030;-69
2021/12/21 06:06:00;;;;;;;22.13;14.40;;;;;;;;;;5030183;28;20355;-69
2021/12/21 06:08:25;;;;;;;26.27;15.60;;;;;;;;;;5022087;28;20133;-69
2021/12/21 06:10:53;;;;;;;23.07;15.07;;;;;;;;;;5028407;28;20022;-69
2021/12/21 06:16:24;;;;;;;23.73;14.20;;;;;;;;;;5044770;28;20100;-69
2021/12/21 06:26:49;;;;;;;24.23;14.60;;;;;;;;;;5029248;28;20033;-69
2021/12/21 06:29:14;;;;;;;24.67;15.47;;;;;;;;;;5034573;28;20067;-67
2021/12/21 06:31:40;;;;;;;22.80;15.40;;;;;;;;;;5032196;28;20610;-69
2021/12/21 06:34:05;;;;;;;20.10;13.13;;;;;;;;;;5037409;28;20029;-68
2021/12/21 06:36:30;;;;;;;23.27;13.50;;;;;;;;;;5016033;28;20486;-68
2021/12/21 06:38:56;;;;;;;22.37;13.40;;;;;;;;;;5032505;28;20072;-68
2021/12/21 06:41:21;;;;;;;20.93;14.30;;;;;;;;;;5037725;28;20029;-69
2021/12/21 06:43:48;;;;;;;21.90;13.20;;;;;;;;;;5042824;28;20059;-69
2021/12/21 06:51:45;;;;;;;23.10;13.20;;;;;;;;;;5027232;28;20492;-68
2021/12/21 06:54:11;;;;;;;18.20;11.97;;;;;;;;;;5032712;28;20025;-69
2021/12/21 06:56:36;;;;;;;21.63;13.27;;;;;;;;;;5029924;28;20442;-68
2021/12/21 06:59:01;;;;;;;19.87;12.37;;;;;;;;;;5035098;28;20488;-68
2021/12/21 07:01:28;;;;;;;20.83;12.03;;;;;;;;;;5034965;28;20493;-69
2021/12/21 07:03:54;;;;;;;22.93;13.93;;;;;;;;;;5015453;28;20021;-68
2021/12/21 07:06:19;;;;;;;19.20;13.07;;;;;;;;;;5032489;28;20017;-68
2021/12/21 07:09:06;;;;;;;18.83;12.83;;;;;;;;;;5012602;28;20078;-68
2021/12/21 07:19:24;;;;;;;17.83;11.37;;;;;;;;;;5020176;28;20106;-69
2021/12/21 07:21:50;;;;;;;14.23;10.93;;;;;;;;;;5028945;28;20064;-68
2021/12/21 07:24:15;;;;;;;17.50;10.90;;;;;;;;;;5034062;28;20747;-68
2021/12/21 07:26:40;;;;;;;16.50;11.23;;;;;;;;;;5016419;28;20033;-68
2021/12/21 07:29:06;;;;;;;12.90;8.60;;;;;;;;;;5032079;28;20067;-68
2021/12/21 07:31:31;;;;;;;15.63;7.67;;;;;;;;;;5015577;28;20056;-68
2021/12/21 07:33:58;;;;;;;13.13;8.20;;;;;;;;;;5033119;28;20041;-68
2021/12/21 07:36:23;;;;;;;14.67;9.47;;;;;;;;;;5014621;28;20018;-68
2021/12/21 07:38:48;;;;;;;12.83;7.17;;;;;;;;;;5028181;28;20136;-69
2021/12/21 07:41:14;;;;;;;13.27;6.93;;;;;;;;;;5034337;28;20433;-69
2021/12/21 07:43:39;;;;;;;12.70;6.70;;;;;;;;;;5042577;28;20065;-69
2021/12/21 07:46:04;;;;;;;11.77;7.70;;;;;;;;;;5023411;28;20032;-69
2021/12/21 07:48:29;;;;;;;13.17;6.43;;;;;;;;;;5016287;28;20096;-68
2021/12/21 07:50:55;;;;;;;9.83;6.17;;;;;;;;;;5032899;28;20025;-68
2021/12/21 07:53:21;;;;;;;8.17;5.20;;;;;;;;;;5014225;28;20486;-68
2021/12/21 07:55:46;;;;;;;11.80;6.37;;;;;;;;;;5032149;28;20025;-68
2021/12/21 07:58:12;;;;;;;10.43;4.97;;;;;;;;;;5017806;28;20112;-69
2021/12/21 08:00:37;;;;;;;15.70;7.03;;;;;;;;;;5011932;28;20022;-68
2021/12/21 08:03:03;;;;;;;10.53;6.43;;;;;;;;;;5025922;28;20433;-69
2021/12/21 08:05:32;;;;;;;12.93;6.10;;;;;;;;;;5014028;28;20068;-69
2021/12/21 08:08:08;;;;;;;9.07;6.17;;;;;;;;;;5031954;28;20025;-68
2021/12/21 08:10:43;;;;;;;12.37;6.73;;;;;;;;;;5011765;28;20417;-69
2021/12/21 08:13:08;;;;;;;;;;;;;;;;;;5020333;28;20037;-68
2021/12/21 08:15:33;;;;;;;10.90;6.25;;;;;;;;;;5030764;28;19971;-69
2021/12/21 08:17:58;;;;;;;11.50;5.23;;;;;;;;;;5032976;28;20025;-69
2021/12/21 08:20:25;;;;;;;13.90;6.87;;;;;;;;;;5032271;28;20017;-68
2021/12/21 08:22:50;;;;;;;13.73;6.23;;;;;;;;;;5031784;28;20037;-68
2021/12/21 08:25:15;;;;;;;14.87;7.40;;;;;;;;;;5031261;28;20064;-68
2021/12/21 08:27:40;;;;;;;12.70;7.27;;;;;;;;;;5031515;28;20477;-69
2021/12/21 08:30:06;;;;;;;15.93;8.13;;;;;;;;;;5013963;28;20033;-68
2021/12/21 08:32:31;;;;;;;13.73;7.30;;;;;;;;;;5020958;28;20040;-68
2021/12/21 08:34:57;;;;;;;13.27;7.47;;;;;;;;;;5030943;28;20044;-68
2021/12/21 08:37:22;;;;;;;14.07;8.53;;;;;;;;;;5014064;28;20108;-69
2021/12/21 08:39:47;;;;;;;15.70;8.87;;;;;;;;;;5006150;28;20405;-67
2021/12/21 08:42:14;;;;;;;17.10;11.00;;;;;;;;;;5018823;28;20514;-66
2021/12/21 08:44:45;;;;;;;16.37;9.67;;;;;;;;;;5026667;28;20116;-66
2021/12/21 08:47:10;;;;;;;18.67;10.00;;;;;;;;;;5031847;28;20546;-67
2021/12/21 08:49:35;;;;;;;17.60;9.53;;;;;;;;;;5035304;28;20017;-67
2021/12/21 08:52:01;;;;;;;16.77;8.63;;;;;;;;;;5031242;28;20026;-67
2021/12/21 08:54:26;;;;;;;15.63;9.87;;;;;;;;;;5031977;28;20028;-68
2021/12/21 08:56:51;;;;;;;13.37;7.60;;;;;;;;;;5024556;28;20040;-67
2021/12/21 08:59:17;;;;;;;14.70;7.43;;;;;;;;;;5031900;28;20034;-72
2021/12/21 09:01:42;;;;;;;16.93;8.27;;;;;;;;;;5031915;28;20161;-71
2021/12/21 09:04:08;;;;;;;13.47;7.73;;;;;;;;;;5030534;28;20381;-67
2021/12/21 09:06:33;;;;;;;15.00;8.63;;;;;;;;;;5026742;28;20030;-66
2021/12/21 09:08:59;;;;;;;15.23;9.73;;;;;;;;;;4995893;28;20026;-66
2021/12/21 09:11:24;;;;;;;12.57;8.30;;;;;;;;;;5029611;28;20482;-66
2021/12/21 09:13:49;;;;;;;14.23;7.67;;;;;;;;;;5031786;28;20478;-67
2021/12/21 09:16:14;;;;;;;12.40;7.33;;;;;;;;;;5013680;28;20064;-67
2021/12/21 09:18:40;;;;;;;7.67;5.27;;;;;;;;;;5031648;28;20029;-66
2021/12/21 09:21:05;;;;;;;9.33;5.27;;;;;;;;;;5031855;28;20033;-66
2021/12/21 09:23:30;;;;;;;9.03;5.50;;;;;;;;;;5018162;28;20536;-67
2021/12/21 09:25:55;;;;;;;9.07;5.60;;;;;;;;;;5038718;28;20489;-66
2021/12/21 09:28:21;;;;;;;7.10;3.97;;;;;;;;;;5031516;28;20029;-66
2021/12/21 09:30:46;;;;;;;7.70;4.33;;;;;;;;;;5031383;28;20026;-66
2021/12/21 09:33:11;;;;;;;8.33;5.47;;;;;;;;;;5008275;28;20533;-67
2021/12/21 09:35:36;;;;;;;7.93;4.53;;;;;;;;;;5030879;28;20025;-67
2021/12/21 09:38:02;;;;;;;7.37;4.80;;;;;;;;;;5030856;28;20056;-67
2021/12/21 09:40:28;;;;;;;9.40;5.40;;;;;;;;;;4988813;28;20128;-67
2021/12/21 09:42:54;;;;;;;9.40;5.43;;;;;;;;;;5030150;28;20030;-67
2021/12/21 09:45:20;;;;;;;8.23;5.07;;;;;;;;;;5031547;28;20076;-67
2021/12/21 09:47:45;;;;;;;10.90;4.87;;;;;;;;;;5031227;28;20068;-67
2021/12/21 09:50:12;;;;;;;9.60;5.40;;;;;;;;;;5029565;28;20026;-67
2021/12/21 09:52:37;;;;;;;10.73;5.63;;;;;;;;;;5029530;28;20029;-67
2021/12/21 09:55:04;;;;;;;8.83;5.10;;;;;;;;;;5021387;28;20041;-67
2021/12/21 09:57:29;;;;;;;7.00;5.13;;;;;;;;;;5034005;28;20040;-68
2021/12/21 09:59:54;;;;;;;6.50;5.37;;;;;;;;;;5029058;28;20025;-67
2021/12/21 10:02:22;;;;;;;10.87;5.53;;;;;;;;;;5016024;28;20674;-67
2021/12/21 10:04:58;;;;;;;7.67;5.00;;;;;;;;;;5028575;28;20025;-67
2021/12/21 10:07:24;;;;;;;8.90;5.30;;;;;;;;;;5030521;28;20135;-68
2021/12/21 10:09:50;;;;;;;9.87;5.60;;;;;;;;;;5015306;28;20030;-68
2021/12/21 10:12:28;;;;;;;7.83;4.93;;;;;;;;;;5037585;28;20491;-68
2021/12/21 10:15:04;;;;;;;8.33;4.87;;;;;;;;;;5028985;28;20052;-68
2021/12/21 10:17:32;;;;;;;9.13;3.77;;;;;;;;;;5034063;28;20065;-68
2021/12/21 10:19:58;;;;;;;8.40;4.37;;;;;;;;;;5005738;28;20389;-68
2021/12/21 10:22:23;;;;;;;7.23;4.30;;;;;;;;;;5009889;28;20029;-68
2021/12/21 10:24:49;;;;;;;9.47;4.30;;;;;;;;;;5002919;28;20038;-68
2021/12/21 10:27:18;;;;;;;8.57;4.30;;;;;;;;;;5016594;28;20030;-68
2021/12/21 10:29:46;;;;;;;7.43;3.80;;;;;;;;;;5018639;28;20026;-69
2021/12/21 10:32:18;;;;;;;10.10;3.90;;;;;;;;;;5025205;28;20033;-67
2021/12/21 10:35:02;;;;;;;8.02;4.47;;;;;;;;;;5018170;28;20033;-68
2021/12/21 10:37:29;;;;;;;6.60;3.50;;;;;;;;;;5014205;28;20025;-67
2021/12/21 10:40:26;;;;;;;6.87;3.30;;;;;;;;;;5011854;28;20053;-67
2021/12/21 10:42:58;;;;;;;4.50;3.10;;;;;;;;;;5028219;28;20504;-67
2021/12/21 10:45:34;;;;;;;5.93;3.90;;;;;;;;;;5031662;28;20040;-68
2021/12/21 10:48:01;;;;;;;7.77;4.33;;;;;;;;;;5010652;28;20112;-68
2021/12/21 10:50:28;;;;;;;8.17;3.77;;;;;;;;;;5030223;28;20025;-66
2021/12/21 10:52:56;;;;;;;9.03;3.30;;;;;;;;;;5037777;28;20508;-67
2021/12/21 10:55:26;;;;;;;5.90;3.53;;;;;;;;;;5012867;28;20504;-67
2021/12/21 10:57:59;;;;;;;8.30;3.55;;;;;;;;;;5015249;28;20120;-67
2021/12/21 11:00:24;;;;;;;5.23;3.87;;;;;;;;;;5032816;28;20025;-68
2021/12/21 11:02:52;;;;;;;6.20;3.80;;;;;;;;;;5010114;28;20038;-67
2021/12/21 11:05:19;;;;;;;7.33;3.53;;;;;;;;;;5014653;28;20030;-68
2021/12/21 11:10:19;;;;;;;6.43;3.30;;;;;;;;;;5024641;28;20109;-68
2021/12/21 11:12:46;;;;;;;4.82;4.32;;;;;;;;;;5028159;28;20075;-67
2021/12/21 11:15:12;;;;;;;7.57;3.60;;;;;;;;;;5011457;28;20034;-68
2021/12/21 11:17:38;;;;;;;7.77;4.10;;;;;;;;;;5003795;28;20067;-68
2021/12/21 11:20:04;;;;;;;7.60;4.40;;;;;;;;;;5048124;28;20849;-68
2021/12/21 11:22:30;;;;;;;7.93;4.30;;;;;;;;;;5015116;28;20397;-69
2021/12/21 11:24:56;;;;;;;8.37;3.87;;;;;;;;;;5024875;28;20029;-67
2021/12/21 11:27:24;;;;;;;6.13;3.87;;;;;;;;;;5031613;28;20440;-68
2021/12/21 11:29:50;;;;;;;6.45;4.65;;;;;;;;;;5014921;28;20374;-68
2021/12/21 11:32:16;;;;;;;6.65;3.55;;;;;;;;;;5021988;28;20025;-68
2021/12/21 11:35:07;;;;;;;7.43;4.30;;;;;;;;;;5012832;28;20394;-67
2021/12/21 11:37:29;;;;;;;8.82;4.13;;;;;;;;;;5031640;28;20110;-67
2021/12/21 11:39:55;;;;;;;6.85;4.50;;;;;;;;;;5013312;28;20073;-68
2021/12/21 11:42:30;;;;;;;10.68;6.40;;;;;;;;;;5016577;28;20435;-68
2021/12/21 11:45:09;;;;;;;9.30;4.80;;;;;;;;;;5028843;28;20053;-68
2021/12/21 11:47:41;;;;;;;7.78;4.28;;;;;;;;;;5024415;28;20489;-68
2021/12/21 11:50:08;;;;;;;9.13;4.90;;;;;;;;;;5032130;28;20485;-68
2021/12/21 11:52:44;;;;;;;13.10;4.60;;;;;;;;;;5031586;28;20061;-67
2021/12/21 11:55:09;;;;;;;7.97;4.93;;;;;;;;;;5024349;28;20052;-68
2021/12/21 11:57:39;;;;;;;7.80;4.55;;;;;;;;;;5026558;28;20505;-67
2021/12/21 12:00:07;;;;;;;7.43;4.20;;;;;;;;;;4998122;28;20025;-67
2021/12/21 12:02:33;;;;;;;8.30;4.93;;;;;;;;;;5027704;28;20112;-67
2021/12/21 12:04:59;;;;;;;7.20;4.68;;;;;;;;;;5022736;28;20168;-67
2021/12/21 12:07:24;;;;;;;8.68;4.60;;;;;;;;;;5030323;28;20362;-67
2021/12/21 12:10:03;;;;;;;5.63;3.88;;;;;;;;;;5009272;28;20018;-67
2021/12/21 12:12:28;;;;;;;7.97;4.50;;;;;;;;;;5021970;28;20024;-68
2021/12/21 12:14:59;;;;;;;6.28;4.28;;;;;;;;;;5012227;28;20029;-68
2021/12/21 12:17:26;;;;;;;6.82;3.72;;;;;;;;;;5026837;28;20110;-68
2021/12/21 12:19:55;;;;;;;8.43;4.20;;;;;;;;;;5031781;28;20168;-68
2021/12/21 12:22:31;;;;;;;5.63;4.07;;;;;;;;;;5029758;28;20057;-68
2021/12/21 12:24:57;;;;;;;8.10;3.58;;;;;;;;;;5038399;28;20029;-67
2021/12/21 12:27:24;;;;;;;5.15;2.95;;;;;;;;;;5017287;28;20029;-68
2021/12/21 12:29:53;;;;;;;5.40;2.65;;;;;;;;;;5035946;28;20029;-66
2021/12/21 12:32:35;;;;;;;5.00;2.40;;;;;;;;;;5014511;28;20026;-68
2021/12/21 12:35:03;;;;;;;3.70;2.20;;;;;;;;;;5014342;28;20506;-69
2021/12/21 12:37:29;;;;;;;3.58;2.40;;;;;;;;;;5031654;28;20536;-66
2021/12/21 12:39:55;;;;;;;3.35;2.22;;;;;;;;;;5027609;28;20167;-67
2021/12/21 12:42:25;;;;;;;3.40;2.17;;;;;;;;;;5017966;28;20540;-68
2021/12/21 12:45:02;;;;;;;4.32;2.30;;;;;;;;;;5028077;28;20041;-68
2021/12/21 12:47:28;;;;;;;5.60;2.70;;;;;;;;;;5027547;28;20017;-68
2021/12/21 12:49:54;;;;;;;6.28;2.88;;;;;;;;;;5031951;28;20386;-67
2021/12/21 12:52:24;;;;;;;4.85;2.72;;;;;;;;;;5010920;28;20021;-67
2021/12/21 12:54:54;;;;;;;5.03;3.00;;;;;;;;;;5031750;28;20081;-67
2021/12/21 12:57:40;;;;;;;7.80;3.47;;;;;;;;;;5034247;28;20112;-67
2021/12/21 13:00:15;;;;;;;4.70;2.70;;;;;;;;;;5029718;28;20029;-67
2021/12/21 13:03:00;;;;;;;3.80;2.47;;;;;;;;;;5032058;28;20076;-68
2021/12/21 13:05:27;;;;;;;5.60;2.17;;;;;;;;;;5031118;28;20034;-68
2021/12/21 13:07:52;;;;;;;3.72;2.40;;;;;;;;;;5012398;28;20083;-67
2021/12/21 13:10:17;;;;;;;5.72;2.90;;;;;;;;;;5026883;28;20033;-67
2021/12/21 13:12:42;;;;;;;3.53;2.65;;;;;;;;;;5031128;28;20041;-66
2021/12/21 13:15:08;;;;;;;5.35;3.00;;;;;;;;;;5033365;28;20029;-67
2021/12/21 13:17:33;;;;;;;7.13;3.30;;;;;;;;;;5039929;28;20083;-66
2021/12/21 13:19:58;;;;;;;5.00;3.17;;;;;;;;;;5041683;28;20021;-67
2021/12/21 13:22:25;;;;;;;6.60;3.17;;;;;;;;;;5014004;28;20045;-67
2021/12/21 13:24:52;;;;;;;5.35;3.35;;;;;;;;;;5036834;28;20526;-66
2021/12/21 13:27:20;;;;;;;5.30;2.83;;;;;;;;;;5032193;28;20032;-67
2021/12/21 13:29:45;;;;;;;6.68;4.32;;;;;;;;;;5018238;28;20462;-68
2021/12/21 13:32:11;;;;;;;3.00;2.50;;;;;;;;;;5040889;28;20039;-68
2021/12/21 13:34:39;;;;;;;6.05;3.58;;;;;;;;;;5034812;28;20033;-67
2021/12/21 13:37:08;;;;;;;6.33;2.83;;;;;;;;;;5035072;28;20496;-67
2021/12/21 13:39:38;;;;;;;6.17;3.53;;;;;;;;;;5030371;28;20049;-67
2021/12/21 13:42:05;;;;;;;6.50;2.90;;;;;;;;;;5031436;28;20273;-67
2021/12/21 13:44:32;;;;;;;4.07;2.90;;;;;;;;;;5035078;28;20112;-67
2021/12/21 13:47:02;;;;;;;7.68;3.28;;;;;;;;;;5030473;28;20056;-68
2021/12/21 13:49:27;;;;;;;3.55;2.90;;;;;;;;;;5034815;28;20032;-67
2021/12/21 13:51:54;;;;;;;7.25;3.22;;;;;;;;;;5040107;28;20393;-67
2021/12/21 13:54:20;;;;;;;6.50;2.88;;;;;;;;;;5016222;28;20033;-67
2021/12/21 13:56:46;;;;;;;4.28;3.10;;;;;;;;;;5017264;28;20032;-66
2021/12/21 13:59:12;;;;;;;4.25;2.88;;;;;;;;;;5041547;28;20060;-67
2021/12/21 14:01:38;;;;;;;5.28;4.07;;;;;;;;;;5036572;28;20026;-68
2021/12/21 14:04:07;;;;;;;8.05;4.50;;;;;;;;;;5034542;28;20264;-67
2021/12/21 14:06:34;;;;;;;7.50;4.60;;;;;;;;;;5035162;28;20013;-67
2021/12/21 14:09:00;;;;;;;6.63;4.25;;;;;;;;;;5036302;28;20401;-67
2021/12/21 14:11:29;;;;;;;7.20;4.43;;;;;;;;;;5016205;28;20041;-67
2021/12/21 14:13:55;;;;;;;10.35;4.32;;;;;;;;;;5032615;28;20481;-67
2021/12/21 14:16:22;;;;;;;6.57;4.28;;;;;;;;;;5034977;28;20064;-67
2021/12/21 14:18:55;;;;;;;6.53;4.80;;;;;;;;;;5034965;28;20095;-68
2021/12/21 14:21:22;;;;;;;7.32;5.13;;;;;;;;;;5015716;28;20021;-67
2021/12/21 14:23:52;;;;;;;8.00;5.00;;;;;;;;;;5035086;28;20025;-68
2021/12/21 14:26:19;;;;;;;7.47;5.00;;;;;;;;;;5033258;28;20079;-68
2021/12/21 14:28:49;;;;;;;7.50;4.53;;;;;;;;;;5033321;28;20021;-68
2021/12/21 14:31:17;;;;;;;5.80;4.57;;;;;;;;;;5033776;28;20159;-67
2021/12/21 14:33:49;;;;;;;8.98;4.80;;;;;;;;;;5034101;28;20493;-67
2021/12/21 14:36:18;;;;;;;6.60;4.83;;;;;;;;;;5033850;28;20029;-67
2021/12/21 14:38:53;;;;;;;10.98;4.75;;;;;;;;;;5024259;28;20041;-67
2021/12/21 14:41:26;;;;;;;7.07;5.20;;;;;;;;;;5033289;28;20025;-68
2021/12/21 14:44:03;;;;;;;8.17;4.30;;;;;;;;;;5026890;28;20033;-68
2021/12/21 14:46:28;;;;;;;7.03;4.80;;;;;;;;;;5033475;28;20022;-68
2021/12/21 14:48:58;;;;;;;7.17;5.00;;;;;;;;;;5032932;28;20033;-67
2021/12/21 14:51:23;;;;;;;4.07;3.53;;;;;;;;;;5034114;28;20032;-67
2021/12/21 14:54:03;;;;;;;6.60;4.20;;;;;;;;;;5033795;28;20480;-68
2021/12/21 14:56:29;;;;;;;4.90;3.90;;;;;;;;;;5019899;28;20136;-68
2021/12/21 14:58:55;;;;;;;5.43;3.87;;;;;;;;;;5033577;28;20108;-68
2021/12/21 15:01:20;;;;;;;4.63;3.00;;;;;;;;;;5021187;28;20018;-68
2021/12/21 15:03:47;;;;;;;7.53;4.07;;;;;;;;;;5034062;28;20487;-68
2021/12/21 15:06:12;;;;;;;5.57;4.20;;;;;;;;;;5033582;28;20044;-67
2021/12/21 15:08:37;;;;;;;7.63;4.83;;;;;;;;;;4994867;28;20018;-68
2021/12/21 15:11:02;;;;;;;4.90;3.83;;;;;;;;;;5013521;28;20025;-68
2021/12/21 15:13:27;;;;;;;10.37;7.17;;;;;;;;;;5043398;28;20143;-68
2021/12/21 15:15:53;;;;;;;10.93;6.73;;;;;;;;;;5003230;28;20490;-67
2021/12/21 15:18:18;;;;;;;7.70;5.50;;;;;;;;;;5029311;28;20486;-67
2021/12/21 15:20:43;;;;;;;6.50;5.30;;;;;;;;;;5021125;28;20021;-66
2021/12/21 15:23:09;;;;;;;5.37;4.77;;;;;;;;;;5030597;28;20120;-67
2021/12/21 15:25:35;;;;;;;8.30;5.30;;;;;;;;;;5010209;28;20386;-67
2021/12/21 15:28:00;;;;;;;5.53;4.37;;;;;;;;;;5029927;28;20030;-68
2021/12/21 15:30:26;;;;;;;6.13;4.93;;;;;;;;;;5030737;28;20029;-67
2021/12/21 15:32:51;;;;;;;7.67;5.20;;;;;;;;;;5029977;28;20048;-68
2021/12/21 15:35:18;;;;;;;7.93;5.33;;;;;;;;;;5029826;28;20068;-68